Flight Track Log - Related Links

Times and Time Zones

All times are in EDT time to prevent confusion due to time zone crossing. See the CPZ5714 flight status page for this flight to view local times or setup timezone preferences in your user account.

Time Position Orientation Groundspeed Altitude Reporting Facility
EDT Latitude Longitude Course Direction KTS MPH feet Rate Location/Type
Sun 08:46:09 PM 44.9000 -93.2333 70° East 165 190 1,500  Level Minneapolis TRACON
Sun 08:47:15 PM 44.9500 -93.2667 335° Northwest 214 246 2,900 1,588 Climbing Minneapolis TRACON
Sun 08:48:25 PM 45.0219 -93.2858 349° North 254 292 5,100 2,153 Climbing Minneapolis Center
Sun 08:49:00 PM 45.0341 -92.6393 68° East  Level FlightAware Approximate
Sun 08:49:26 PM 45.0853 -93.2328 31° Northeast 305 351 7,600  Level Minneapolis Center
Sun 08:50:00 PM 45.0755 -92.4943 68° East  Level FlightAware Approximate
Sun 08:50:40 PM 45.1167 -93.0875 73° East 323 372 10,500  Level Minneapolis Center
Sun 08:51:00 PM 45.1093 -92.3463 70° East  Level FlightAware Approximate
Sun 08:51:42 PM 45.1567 -92.9194 71° East 382 440 12,100  Level Minneapolis Center
Sun 08:52:44 PM 45.1914 -92.7717 72° East 395 455 14,400 1,805 Climbing Minneapolis Center
Sun 08:53:45 PM 45.2192 -92.6519 72° East 399 459 15,800 1,659 Climbing Minneapolis Center
Sun 08:54:47 PM 45.2619 -92.4636 72° East 418 481 17,800 1,694 Climbing Minneapolis Center
Sun 08:55:49 PM 45.2919 -92.3381 71° East 419 482 19,300 1,742 Climbing Minneapolis Center
Sun 08:56:51 PM 45.3242 -92.1361 77° East 437 503 21,400 1,659 Climbing Minneapolis Center
Sun 08:57:52 PM 45.3372 -91.9625 84° East 441 507 22,700 1,289 Climbing Minneapolis Center
Sun 08:59:06 PM 45.3225 -91.7478 95° East 455 524 24,300 1,412 Climbing Minneapolis Center
Sun 09:00:08 PM 45.3075 -91.5292 95° East 463 533 25,900 1,403 Climbing Minneapolis Center
Sun 09:01:10 PM 45.2953 -91.3458 95° East 466 536 27,200 1,161 Climbing Minneapolis Center
Sun 09:02:12 PM 45.2847 -91.1739 95° East 469 540 28,300 919 Climbing Minneapolis Center
Sun 09:03:14 PM 45.2692 -90.9533 96° East 468 539 29,100 976 Climbing Minneapolis Center
Sun 09:04:15 PM 45.2572 -90.7653 95° East 477 549 30,300 1,171 Climbing Minneapolis Center
Sun 09:05:17 PM 45.2436 -90.5811 96° East 473 544 31,500 968 Climbing Minneapolis Center
Sun 09:06:19 PM 45.2314 -90.4011 95° East 464 534 32,300 774 Climbing Minneapolis Center
Sun 09:07:21 PM 45.2181 -90.2211 96° East 462 532 33,100 780 Climbing Minneapolis Center
Sun 09:08:22 PM 45.2036 -90.0431 97° East 458 527 33,900 780 Climbing Minneapolis Center
Sun 09:09:24 PM 45.1897 -89.8653 96° East 456 525 34,700 532 Climbing Minneapolis Center
Sun 09:10:26 PM 45.1731 -89.6525 96° East 456 525 35,000 145 Climbing Minneapolis Center
Sun 09:11:28 PM 45.1581 -89.4781 97° East 451 519 35,000  Level Minneapolis Center
Sun 09:12:30 PM 45.1444 -89.3000 96° East 456 525 35,000  Level Minneapolis Center
Sun 09:13:31 PM 45.1292 -89.1247 97° East 453 521 35,000  Level Minneapolis Center
Sun 09:14:33 PM 45.1144 -88.9461 97° East 456 525 35,000  Level Minneapolis Center
Sun 09:15:35 PM 45.0989 -88.7689 97° East 456 525 35,000  Level Minneapolis Center
Sun 09:16:49 PM 45.0797 -88.5681 98° East 456 525 35,000  Level Minneapolis Center
Sun 09:17:52 PM 45.0611 -88.3539 97° East 459 528 35,000  Level Minneapolis Center
Sun 09:18:53 PM 45.0453 -88.1750 97° East 458 527 35,000  Level Minneapolis Center
Sun 09:19:55 PM 45.0292 -87.9989 97° East 455 524 35,000  Level Minneapolis Center
Sun 09:20:57 PM 45.0075 -87.7878 98° East 453 521 35,000  Level Minneapolis Center
Sun 09:21:59 PM 44.9906 -87.6106 98° East 455 524 35,000  Level Minneapolis Center
Sun 09:23:00 PM 44.9739 -87.4364 98° East 451 519 35,000  Level Minneapolis Center
Sun 09:24:02 PM 44.9567 -87.2642 98° East 446 513 35,000  Level Minneapolis Center
Sun 09:25:04 PM 44.9383 -87.0883 98° East 451 519 35,000  Level Minneapolis Center
Sun 09:26:06 PM 44.9203 -86.9156 98° East 446 513 35,000  Level Minneapolis Center
Sun 09:27:07 PM 44.9022 -86.7447 98° East 446 513 35,000  Level Minneapolis Center
Sun 09:28:09 PM 44.8819 -86.5669 99° East 449 517 35,000  Level Minneapolis Center
Sun 09:29:11 PM 44.8600 -86.3594 98° East 447 514 35,000  Level Minneapolis Center
Sun 09:30:13 PM 44.8419 -86.1878 98° East 446 513 35,000  Level Minneapolis Center
Sun 09:31:15 PM 44.8219 -86.0158 99° East 445 512 35,000  Level Minneapolis Center
Sun 09:32:17 PM 44.8025 -85.8456 99° East 443 510 35,000  Level Minneapolis Center
Sun 09:33:18 PM 44.7831 -85.6767 99° East 439 505 35,000  Level Minneapolis Center
Sun 09:34:20 PM 44.7617 -85.4944 99° East 441 507 35,000  Level Minneapolis Center
Sun 09:35:22 PM 44.7419 -85.3250 99° East 442 509 35,000  Level Minneapolis Center
Sun 09:36:24 PM 44.7208 -85.1567 100° East 439 505 35,000  Level Minneapolis Center
Sun 09:37:25 PM 44.7008 -84.9867 99° East 440 506 35,000  Level Minneapolis Center
Sun 09:38:27 PM 44.6764 -84.7842 100° East 440 506 35,000  Level Minneapolis Center
Sun 09:39:29 PM 44.6556 -84.6172 100° East 437 503 35,000  Level Minneapolis Center
Sun 09:40:30 PM 44.6347 -84.4483 100° East 438 504 35,000  Level Minneapolis Center
Sun 09:41:32 PM 44.6122 -84.2800 101° East 441 507 35,000  Level Minneapolis Center
Sun 09:42:46 PM 44.5894 -84.1122 101° East 439 505 35,000  Level Minneapolis Center
Sun 09:43:48 PM 44.5642 -83.9111 100° East 438 504 35,000  Level Minneapolis Center
Sun 09:44:49 PM 44.5408 -83.7444 101° East 437 503 35,000  Level Minneapolis Center
Sun 09:45:51 PM 44.5144 -83.5439 100° East 437 503 35,000  Level Minneapolis Center
Sun 09:46:52 PM 44.4933 -83.3744 100° East 440 506 35,000  Level Minneapolis Center
Sun 09:47:54 PM 44.4700 -83.2064 101° East 441 507 35,000  Level Minneapolis Center
Sun 09:48:55 PM 44.4458 -83.0375 101° East 442 509 35,000  Level Minneapolis Center
Sun 09:49:57 PM 44.4219 -82.8711 101° East 440 506 35,000  Level Minneapolis Center
Sun 09:50:58 PM 44.3994 -82.7031 101° East 441 507 35,000  Level Minneapolis Center
Sun 09:51:29 PM 44.3667 -82.6000 114° Southeast 440 506 35,000  Level Toronto Center
Sun 09:52:29 PM 44.3500 -82.4000 97° East 440 506 35,000  Level Toronto Center
Sun 09:53:29 PM 44.3167 -82.2500 107° East 440 506 35,000  Level Toronto Center
Sun 09:54:29 PM 44.2667 -82.1000 115° Southeast 440 506 35,000  Level Toronto Center
Sun 09:55:29 PM 44.2333 -81.9333 106° East 440 506 35,000  Level Toronto Center
Sun 09:56:29 PM 44.2000 -81.7667 106° East 440 506 35,000  Level Toronto Center
Sun 09:57:29 PM 44.1667 -81.6167 107° East 440 506 35,000  Level Toronto Center
Sun 09:58:29 PM 44.1167 -81.4500 113° Southeast 440 506 35,000  Level Toronto Center
Sun 09:59:29 PM 44.0833 -81.3000 107° East 440 506 35,000  Level Toronto Center
Sun 10:00:29 PM 44.0333 -81.1167 111° Southeast 440 506 35,000  Level Toronto Center
Sun 10:01:29 PM 44.0000 -80.9833 109° East 430 495 35,000  Level Toronto Center
Sun 10:02:29 PM 43.9667 -80.8167 105° East 440 506 35,000  Level Toronto Center
Sun 10:03:29 PM 43.9333 -80.6500 105° East 440 506 35,000  Level Toronto Center
Sun 10:04:29 PM 43.8833 -80.5167 117° Southeast 440 506 35,000  Level Toronto Center
Sun 10:05:29 PM 43.8333 -80.3333 111° Southeast 440 506 35,000  Level Toronto Center
Sun 10:06:29 PM 43.8000 -80.1833 107° East 440 506 35,000  Level Toronto Center
Sun 10:07:29 PM 43.7500 -80.0333 115° Southeast 440 506 35,000  Level Toronto Center
Sun 10:08:29 PM 43.7167 -79.8667 105° East 430 495 35,000  Level Toronto Center
Sun 10:09:29 PM 43.6667 -79.7000 112° Southeast 440 506 35,000  Level Toronto Center
Sun 10:10:29 PM 43.6333 -79.5333 105° East 430 495 35,000  Level Toronto Center
Sun 10:11:29 PM 43.6167 -79.3833 99° East 440 506 35,000  Level Toronto Center
Sun 10:12:29 PM 43.6000 -79.2167 98° East 430 495 35,000  Level Toronto Center
Sun 10:13:29 PM 43.5833 -79.0500 98° East 430 495 35,000  Level Toronto Center
Sun 10:14:29 PM 43.5500 -78.9000 107° East 430 495 35,000  Level Toronto Center
Sun 10:15:29 PM 43.5333 -78.7167 97° East 430 495 35,000  Level Toronto Center
Sun 10:16:29 PM 43.5167 -78.5833 100° East 440 506 35,000 -300 Level Toronto Center
Sun 10:17:29 PM 43.4833 -78.4000 104° East 430 495 34,400 -700 Descending Toronto Center
Sun 10:18:29 PM 43.4500 -78.2333 105° East 430 495 33,600 -950 Descending Toronto Center
Sun 10:19:29 PM 43.4333 -78.0667 98° East 440 506 32,500 -1,150 Descending Toronto Center
Sun 10:20:29 PM 43.4167 -77.9167 99° East 440 506 31,300 -1,200 Descending Toronto Center
Sun 10:21:29 PM 43.4000 -77.7500 98° East 430 495 30,100 -1,150 Descending Toronto Center
Sun 10:22:29 PM 43.3667 -77.5667 104° East 430 495 29,000 -550 Descending Toronto Center
Sun 10:23:29 PM 43.3500 -77.4167 99° East 440 506 29,000  Level Toronto Center
Sun 10:24:29 PM 43.3167 -77.2500 105° East 450 518 29,000  Level Toronto Center
Sun 10:25:29 PM 43.2833 -77.0667 104° East 460 529 29,000  Level Toronto Center
Sun 10:26:29 PM 43.2667 -76.8833 97° East 460 529 29,000  Level Toronto Center
Sun 10:27:29 PM 43.2500 -76.7333 99° East 460 529 29,000  Level Toronto Center
Sun 10:28:29 PM 43.2000 -76.5667 112° Southeast 460 529 29,000  Level Toronto Center
Sun 10:29:29 PM 43.1833 -76.3833 97° East 460 529 29,000  Level Toronto Center
Sun 10:30:29 PM 43.1667 -76.2333 99° East 470 541 29,000  Level Toronto Center
Sun 10:31:29 PM 43.1167 -76.0500 110° East 470 541 29,000  Level Toronto Center
Sun 10:32:29 PM 43.1000 -75.8667 97° East 460 529 29,000 -100 Level Toronto Center
Sun 10:33:29 PM 43.0833 -75.6833 97° East 470 541 28,800 -1,250 Descending Toronto Center
Sun 10:34:29 PM 43.0333 -75.5333 114° Southeast 460 529 26,500 -2,300 Descending Toronto Center
Sun 10:35:29 PM 43.0167 -75.3667 98° East 430 495 24,200 -2,200 Descending Toronto Center
Sun 10:36:29 PM 43.0000 -75.2167 99° East 410 472 22,100 -1,918 Descending Toronto Center
Sun 10:37:06 PM 42.9928 -75.1767 104° East 412 474 21,100 -2,165 Descending Boston Center
Sun 10:38:06 PM 42.9653 -75.0192 103° East 393 452 18,600 -2,150 Descending Boston Center
Sun 10:39:06 PM 42.9411 -74.8850 104° East 377 434 16,800 -1,850 Descending Boston Center
Sun 10:40:06 PM 42.9189 -74.7508 103° East 372 428 14,900 -1,800 Descending Boston Center
Sun 10:41:06 PM 42.8983 -74.6339 103° East 354 407 13,200 -1,750 Descending Boston Center
Sun 10:42:06 PM 42.8694 -74.4997 106° East 338 389 11,400 -1,550 Descending Boston Center
Sun 10:43:06 PM 42.8314 -74.4078 119° Southeast 315 362 10,100 -1,400 Descending Boston Center
Sun 10:44:06 PM 42.7953 -74.3244 121° Southeast 310 357 8,600 -1,700 Descending Boston Center
Sun 10:45:06 PM 42.7431 -74.2097 122° Southeast 303 349 6,700 -1,800 Descending Boston Center
Sun 10:46:06 PM 42.6967 -74.1069 122° Southeast 303 349 5,000 -1,450 Descending Boston Center
Sun 10:47:06 PM 42.6603 -74.0267 122° Southeast 291 335 3,800 -750 Descending Boston Center
Sun 10:48:06 PM 42.6239 -73.9411 120° Southeast 277 319 3,500 -250 Descending Boston Center
Sun 10:49:06 PM 42.6189 -73.8508 94° East 254 292 3,300 -467 Descending Boston Center
Sun 10:49:36 PM 42.6236 -73.8003 83° East 211 243 2,800 -1,000 Descending Boston Center

Login

Don't have an account? Register now (free) for customized features, flight alerts, and more!